Wessington, South Dakota
Current Conditions -  °F | °C
As of 10:55 PM on Wednesday 17 Dec 2014 (Local Time) from KHON Reporting Station
Overcast Overcast  
Wind Chill:   Ceiling: 10000
Heat Index: 12°   Visibility: 10mi
Dew Point:   Wind: 6mph
Humidity: 88%   Direction: 130°SE
Pressure: 30.25"   Gusts: NA
Location:  44.45°N, 98.7°W
Report Text: KHON 180455Z AUTO 13005KT 10SM OVC100 M11/M13 A3025 RMK AO2 SLP273 T11111128
Loading
Personal Weather Stations






























Interactive Weather Map New forecast layout! Learn more

10-Day Weather Forecast

Advertisements
Track Severe Weather on mobile